createdAt,value
2022-08-03T00:01:20.453Z,501.40
2022-08-03T00:03:46.945Z,504.70
2022-08-03T00:06:13.399Z,529.50
2022-08-03T00:08:40.319Z,506.00
2022-08-03T00:11:06.892Z,525.70
2022-08-03T00:13:33.355Z,527.80
2022-08-03T00:15:59.785Z,526.73
2022-08-03T00:18:26.247Z,523.07
2022-08-03T00:20:52.686Z,499.90
2022-08-03T00:23:19.134Z,519.73
2022-08-03T00:25:45.590Z,522.53
2022-08-03T00:28:12.032Z,498.03
2022-08-03T00:30:38.497Z,517.63
2022-08-03T00:33:08.425Z,508.10
2022-08-03T00:35:50.334Z,521.43
2022-08-03T00:38:17.687Z,517.73
2022-08-03T00:40:44.171Z,518.00
2022-08-03T00:43:10.636Z,496.30
2022-08-03T00:45:37.071Z,501.00
2022-08-03T00:48:03.653Z,514.77
2022-08-03T00:50:30.110Z,526.40
2022-08-03T00:52:56.611Z,515.20
2022-08-03T00:55:23.057Z,503.77
2022-08-03T00:57:49.515Z,510.00
2022-08-03T01:00:15.969Z,499.87
2022-08-03T01:02:42.448Z,496.40
2022-08-03T01:05:08.893Z,500.97
2022-08-03T01:07:35.359Z,529.43
2022-08-03T01:10:01.780Z,493.13
2022-08-03T01:12:28.240Z,500.23
2022-08-03T01:14:54.681Z,509.33
2022-08-03T01:17:21.112Z,481.47
2022-08-03T01:19:47.593Z,491.13
2022-08-03T01:22:14.317Z,527.77
2022-08-03T01:24:41.002Z,514.97
2022-08-03T01:27:07.498Z,517.33
2022-08-03T01:29:33.958Z,492.00
2022-08-03T01:32:58.629Z,498.17
2022-08-03T01:34:46.906Z,488.03
2022-08-03T01:37:13.319Z,523.07
2022-08-03T01:39:39.764Z,498.70
2022-08-03T01:42:06.231Z,489.93
2022-08-03T01:44:32.710Z,516.60
2022-08-03T01:46:59.161Z,495.03
2022-08-03T01:49:25.685Z,518.43
2022-08-03T01:52:02.668Z,518.37
2022-08-03T01:54:31.156Z,524.23
2022-08-03T01:56:57.599Z,531.20
2022-08-03T01:59:24.052Z,491.10
2022-08-03T02:02:28.126Z,525.90
2022-08-03T02:04:36.952Z,518.03
2022-08-03T02:07:03.600Z,498.27
2022-08-03T02:09:30.098Z,514.50
2022-08-03T02:11:56.543Z,515.57
2022-08-03T02:14:22.997Z,494.37
2022-08-03T02:16:49.430Z,521.40
2022-08-03T02:19:15.873Z,522.80
2022-08-03T02:21:56.286Z,523.30
2022-08-03T02:24:24.025Z,494.30
2022-08-03T02:26:50.465Z,521.10
2022-08-03T02:29:17.025Z,522.83
2022-08-03T02:31:43.474Z,487.57
2022-08-03T02:34:09.923Z,522.43
2022-08-03T02:36:36.365Z,513.80
2022-08-03T02:39:02.813Z,519.63
2022-08-03T02:41:29.244Z,516.90
2022-08-03T02:44:06.294Z,486.07
2022-08-03T02:46:33.820Z,512.77
2022-08-03T02:49:00.348Z,527.50
2022-08-03T02:51:46.699Z,532.07
2022-08-03T02:54:13.140Z,530.27
2022-08-03T02:56:39.575Z,514.20
2022-08-03T02:59:06.038Z,517.33
2022-08-03T03:01:32.660Z,543.17
2022-08-03T03:04:00.308Z,545.03
2022-08-03T03:06:29.312Z,507.60
2022-08-03T03:08:59.623Z,544.30
2022-08-03T03:11:26.395Z,542.97
2022-08-03T03:13:52.848Z,531.60
2022-08-03T03:16:19.312Z,528.47
2022-08-03T03:18:45.778Z,543.40
2022-08-03T03:21:12.226Z,542.37
2022-08-03T03:23:38.685Z,532.43
2022-08-03T03:26:05.316Z,520.63
2022-08-03T03:28:31.782Z,528.93
2022-08-03T03:30:58.283Z,541.07
2022-08-03T03:33:24.749Z,539.80
2022-08-03T03:35:51.195Z,515.13
2022-08-03T03:38:17.660Z,544.27
2022-08-03T03:40:44.086Z,537.40
2022-08-03T03:43:10.582Z,543.50
2022-08-03T03:45:37.079Z,531.83
2022-08-03T03:48:03.569Z,531.40
2022-08-03T03:50:30.061Z,537.17
2022-08-03T03:52:56.523Z,548.60
2022-08-03T03:55:23.013Z,533.97
2022-08-03T03:57:49.445Z,550.00
2022-08-03T04:00:15.895Z,540.97
2022-08-03T04:02:42.320Z,547.93
2022-08-03T04:05:08.764Z,549.90
2022-08-03T04:07:35.212Z,538.80
2022-08-03T04:10:14.074Z,547.57
2022-08-03T04:12:50.375Z,539.13
2022-08-03T04:15:17.195Z,546.20
2022-08-03T04:17:43.651Z,551.10
2022-08-03T04:20:10.108Z,545.60
2022-08-03T04:22:36.550Z,539.10
2022-08-03T04:25:03.044Z,553.90
2022-08-03T04:27:29.505Z,553.80
2022-08-03T04:29:56.064Z,551.73
2022-08-03T04:32:22.516Z,542.30
2022-08-03T04:34:48.988Z,550.10
2022-08-03T04:37:15.440Z,529.57
2022-08-03T04:39:41.904Z,547.73
2022-08-03T04:42:09.161Z,549.77
2022-08-03T04:44:35.805Z,513.00
2022-08-03T04:47:02.261Z,542.53
2022-08-03T04:49:28.905Z,551.60
2022-08-03T04:51:55.405Z,524.03
2022-08-03T04:54:21.952Z,537.83
2022-08-03T04:56:48.476Z,536.80
2022-08-03T04:59:14.940Z,551.23
2022-08-03T05:01:41.580Z,546.23
2022-08-03T05:04:08.095Z,537.00
2022-08-03T05:06:34.654Z,534.27
2022-08-03T05:09:01.853Z,534.27
2022-08-03T05:11:28.304Z,516.23
2022-08-03T05:13:54.788Z,514.87
2022-08-03T05:16:21.248Z,511.47
2022-08-03T05:18:47.720Z,529.90
2022-08-03T05:21:14.174Z,531.40
2022-08-03T05:23:40.645Z,537.00
2022-08-03T05:26:07.110Z,532.87
2022-08-03T05:28:33.566Z,535.10
2022-08-03T05:31:00.006Z,520.93
2022-08-03T05:33:26.478Z,516.97
2022-08-03T05:36:01.089Z,535.27
2022-08-03T05:38:35.054Z,520.73
2022-08-03T05:41:22.906Z,536.20
2022-08-03T05:43:48.372Z,528.83
2022-08-03T05:46:14.833Z,541.37
2022-08-03T05:48:41.320Z,543.30
2022-08-03T05:51:07.819Z,520.57
2022-08-03T05:53:34.351Z,550.93
2022-08-03T05:56:13.149Z,543.10
2022-08-03T05:58:41.229Z,540.27
2022-08-03T06:01:07.785Z,522.10
2022-08-03T06:03:34.269Z,547.83
2022-08-03T06:06:00.882Z,537.53
2022-08-03T06:08:27.378Z,542.50
2022-08-03T06:10:53.836Z,536.03
2022-08-03T06:13:20.281Z,539.73
2022-08-03T06:15:46.718Z,546.60
2022-08-03T06:18:13.232Z,545.50
2022-08-03T06:20:39.708Z,536.77
2022-08-03T06:23:06.515Z,516.07
2022-08-03T06:25:33.962Z,520.73
2022-08-03T06:28:00.614Z,534.90
2022-08-03T06:30:29.473Z,538.30
2022-08-03T06:32:56.137Z,546.67
2022-08-03T06:35:22.699Z,528.03
2022-08-03T06:37:51.002Z,543.83
2022-08-03T06:40:21.896Z,516.87
2022-08-03T06:42:51.112Z,532.50
2022-08-03T06:45:17.864Z,534.20
2022-08-03T06:47:44.611Z,542.20
2022-08-03T06:50:12.817Z,539.00
2022-08-03T06:52:43.126Z,536.10
2022-08-03T06:55:09.584Z,546.40
2022-08-03T06:57:36.096Z,543.60
2022-08-03T07:00:07.694Z,543.50
2022-08-03T07:02:37.831Z,542.27
2022-08-03T07:05:04.335Z,532.87
2022-08-03T07:07:30.770Z,532.97
2022-08-03T07:09:58.302Z,537.27
2022-08-03T07:12:24.930Z,536.27
2022-08-03T07:14:51.388Z,543.33
2022-08-03T07:17:17.867Z,540.63
2022-08-03T07:19:44.303Z,535.20
2022-08-03T07:22:10.739Z,526.73
2022-08-03T07:24:37.188Z,535.10
2022-08-03T07:27:03.632Z,538.33
2022-08-03T07:29:30.113Z,534.03
2022-08-03T07:32:01.211Z,539.10
2022-08-03T07:34:27.651Z,543.90
2022-08-03T07:36:54.109Z,536.37
2022-08-03T07:39:20.534Z,536.23
2022-08-03T07:41:46.985Z,542.13
2022-08-03T07:44:13.434Z,532.80
2022-08-03T07:46:39.908Z,541.10
2022-08-03T07:49:06.407Z,534.50
2022-08-03T07:51:32.916Z,527.97
2022-08-03T07:53:59.381Z,545.73
2022-08-03T07:56:25.854Z,549.27
2022-08-03T07:58:52.310Z,538.63
2022-08-03T08:01:18.831Z,542.73
2022-08-03T08:03:53.465Z,543.20
2022-08-03T08:06:20.147Z,521.73
2022-08-03T08:08:46.580Z,519.63
2022-08-03T08:11:14.737Z,517.57
2022-08-03T08:13:41.168Z,541.23
2022-08-03T08:16:07.625Z,544.50
2022-08-03T08:18:34.057Z,521.40
2022-08-03T08:21:00.583Z,543.40
2022-08-03T08:23:42.447Z,543.40
2022-08-03T08:26:10.744Z,543.83
2022-08-03T08:28:37.194Z,542.03
2022-08-03T08:31:03.647Z,533.67
2022-08-03T08:33:47.981Z,541.93
2022-08-03T08:36:16.518Z,543.67
2022-08-03T08:38:42.972Z,542.50
2022-08-03T08:41:09.414Z,540.40
2022-08-03T08:43:35.854Z,544.43
2022-08-03T08:46:02.305Z,538.97
2022-08-03T08:48:28.749Z,545.67
2022-08-03T08:50:55.215Z,548.63
2022-08-03T08:53:26.757Z,547.00
2022-08-03T08:55:58.178Z,539.37
2022-08-03T08:58:26.719Z,538.53
2022-08-03T09:00:53.463Z,546.23
2022-08-03T09:03:22.734Z,544.70
2022-08-03T09:05:57.041Z,535.90
2022-08-03T09:08:23.554Z,544.40
2022-08-03T09:10:50.006Z,534.97
2022-08-03T09:13:16.472Z,535.17
2022-08-03T09:15:42.923Z,536.40
2022-08-03T09:18:27.599Z,544.60
2022-08-03T09:21:06.787Z,534.93
2022-08-03T09:24:01.635Z,531.00
2022-08-03T09:26:29.591Z,542.10
2022-08-03T09:29:01.338Z,520.47
2022-08-03T09:31:30.480Z,549.13
2022-08-03T09:33:56.938Z,545.60
2022-08-03T09:36:23.734Z,540.80
2022-08-03T09:38:50.304Z,535.50
2022-08-03T09:41:16.797Z,525.30
2022-08-03T09:43:43.227Z,553.23
2022-08-03T09:46:09.665Z,524.97
2022-08-03T09:48:36.108Z,536.93
2022-08-03T09:51:12.809Z,536.93
2022-08-03T09:53:59.204Z,515.20
2022-08-03T09:56:35.490Z,515.10
2022-08-03T09:59:03.056Z,537.10
2022-08-03T10:01:29.576Z,542.13
2022-08-03T10:04:03.614Z,518.03
2022-08-03T10:06:31.466Z,534.60
2022-08-03T10:08:57.902Z,534.33
2022-08-03T10:11:24.419Z,532.53
2022-08-03T10:13:50.850Z,535.63
2022-08-03T10:16:25.839Z,532.73
2022-08-03T10:18:52.494Z,522.37
2022-08-03T10:21:19.024Z,509.60
2022-08-03T10:23:45.479Z,529.80
2022-08-03T10:26:11.941Z,535.60
2022-08-03T10:28:42.808Z,527.37
2022-08-03T10:31:10.934Z,529.20
2022-08-03T10:33:51.197Z,536.33
2022-08-03T10:36:19.411Z,533.00
2022-08-03T10:38:45.988Z,532.40
2022-08-03T10:41:12.480Z,540.63
2022-08-03T10:43:38.927Z,524.60
2022-08-03T10:46:05.396Z,525.07
2022-08-03T10:48:31.834Z,511.80
2022-08-03T10:50:58.272Z,539.50
2022-08-03T10:53:24.890Z,548.73
2022-08-03T10:55:51.856Z,552.93
2022-08-03T10:58:30.320Z,533.23
2022-08-03T11:00:57.484Z,554.50
2022-08-03T11:03:23.955Z,554.73
2022-08-03T11:05:50.402Z,549.40
2022-08-03T11:08:17.424Z,552.20
2022-08-03T11:10:43.951Z,547.50
2022-08-03T11:13:10.425Z,532.77
2022-08-03T11:15:38.309Z,547.37
2022-08-03T11:18:04.776Z,547.00
2022-08-03T11:20:33.764Z,538.73
2022-08-03T11:23:00.205Z,537.57
2022-08-03T11:25:53.598Z,551.50
2022-08-03T11:28:13.141Z,527.97
2022-08-03T11:30:41.204Z,516.27
2022-08-03T11:33:07.759Z,543.03
2022-08-03T11:35:35.509Z,531.00
2022-08-03T11:38:03.263Z,539.00
2022-08-03T11:40:31.581Z,512.10
2022-08-03T11:42:58.068Z,528.37
2022-08-03T11:45:24.551Z,531.10
2022-08-03T11:47:51.626Z,533.80
2022-08-03T11:50:18.105Z,529.43
2022-08-03T11:52:44.577Z,528.30
2022-08-03T11:55:11.029Z,535.30
2022-08-03T11:59:13.118Z,529.37
2022-08-03T12:00:23.896Z,523.20
2022-08-03T12:02:52.589Z,532.70
2022-08-03T12:05:19.131Z,533.43
2022-08-03T12:08:03.113Z,527.93
2022-08-03T12:10:30.948Z,513.97
2022-08-03T12:12:57.410Z,527.93
2022-08-03T12:15:24.028Z,529.73
2022-08-03T12:17:52.783Z,521.57
2022-08-03T12:20:35.088Z,485.67
2022-08-03T12:23:01.926Z,505.90
2022-08-03T12:25:38.742Z,508.47
2022-08-03T12:28:05.481Z,487.37
2022-08-03T12:30:51.908Z,498.23
2022-08-03T12:33:18.393Z,469.00
2022-08-03T12:35:52.604Z,478.73
2022-08-03T12:38:20.990Z,495.10
2022-08-03T12:40:47.477Z,476.03
2022-08-03T12:43:13.950Z,469.50
2022-08-03T12:45:40.443Z,469.37
2022-08-03T12:48:06.923Z,466.07
2022-08-03T12:50:33.392Z,482.23
2022-08-03T12:52:59.926Z,488.13
2022-08-03T12:55:26.414Z,464.13
2022-08-03T12:57:52.996Z,472.43
2022-08-03T13:00:28.761Z,485.73
2022-08-03T13:03:17.379Z,486.90
2022-08-03T13:05:42.719Z,464.70
2022-08-03T13:08:09.171Z,497.03
2022-08-03T13:10:38.048Z,487.17
2022-08-03T13:13:04.498Z,501.17
2022-08-03T13:15:33.551Z,477.20
2022-08-03T13:18:05.244Z,483.67
2022-08-03T13:20:31.700Z,487.30
2022-08-03T13:23:00.955Z,486.30
2022-08-03T13:25:27.579Z,472.63
2022-08-03T13:28:03.828Z,501.63
2022-08-03T13:30:32.129Z,482.70
2022-08-03T13:32:58.583Z,516.20
2022-08-03T13:35:25.267Z,520.70
2022-08-03T13:37:51.828Z,526.23
2022-08-03T13:40:23.617Z,520.83
2022-08-03T13:42:56.489Z,513.47
2022-08-03T13:45:22.938Z,517.73
2022-08-03T13:47:49.383Z,510.27
2022-08-03T13:50:15.820Z,497.17
2022-08-03T13:52:42.297Z,519.40
2022-08-03T13:55:08.849Z,525.50
2022-08-03T13:58:04.605Z,492.43
2022-08-03T14:00:28.097Z,520.70
2022-08-03T14:03:01.914Z,515.70
2022-08-03T14:05:31.932Z,489.00
2022-08-03T14:08:04.947Z,521.90
2022-08-03T14:10:31.692Z,512.37
2022-08-03T14:12:58.147Z,520.33
2022-08-03T14:15:24.583Z,493.80
2022-08-03T14:17:51.042Z,499.77
2022-08-03T14:20:37.876Z,514.73
2022-08-03T14:23:03.960Z,504.87
2022-08-03T14:25:30.383Z,522.07
2022-08-03T14:28:09.831Z,517.53
2022-08-03T14:30:36.275Z,506.13
2022-08-03T14:33:02.750Z,526.53
2022-08-03T14:35:29.207Z,500.23
2022-08-03T14:37:55.676Z,517.67
2022-08-03T14:40:22.100Z,517.40
2022-08-03T14:42:48.547Z,520.63
2022-08-03T14:45:20.511Z,505.13
2022-08-03T14:50:24.538Z,513.10
2022-08-03T14:50:42.121Z,518.50
2022-08-03T14:53:12.061Z,519.60
2022-08-03T14:55:50.941Z,521.10
2022-08-03T14:58:20.696Z,496.40
2022-08-03T15:00:47.788Z,500.67
2022-08-03T15:03:16.717Z,519.97
2022-08-03T15:05:43.592Z,523.23
2022-08-03T15:08:10.090Z,528.40
2022-08-03T15:10:43.892Z,536.70
2022-08-03T15:13:11.188Z,543.33
2022-08-03T15:15:37.710Z,525.83
2022-08-03T15:18:04.175Z,527.10
2022-08-03T15:20:43.190Z,502.57
2022-08-03T15:23:10.698Z,506.23
2022-08-03T15:26:03.686Z,522.80
2022-08-03T15:28:23.614Z,504.83
2022-08-03T15:30:50.069Z,507.63
2022-08-03T15:33:16.579Z,525.60
2022-08-03T15:35:43.017Z,533.30
2022-08-03T15:38:09.901Z,522.23
2022-08-03T15:40:36.503Z,526.60
2022-08-03T15:43:03.007Z,505.27
2022-08-03T15:45:29.439Z,521.23
2022-08-03T15:48:02.930Z,517.27
2022-08-03T15:50:29.399Z,522.23
2022-08-03T15:52:55.907Z,532.93
2022-08-03T15:55:22.438Z,503.50
2022-08-03T15:59:01.189Z,527.40
2022-08-03T16:00:35.299Z,499.93
2022-08-03T16:03:01.761Z,499.20
2022-08-03T16:05:28.208Z,523.43
2022-08-03T16:08:03.986Z,514.90
2022-08-03T16:10:31.065Z,517.10
2022-08-03T16:12:57.720Z,511.30
2022-08-03T16:15:24.154Z,526.27
2022-08-03T16:17:50.597Z,533.10
2022-08-03T16:20:30.992Z,535.83
2022-08-03T16:23:05.486Z,522.30
2022-08-03T16:25:37.645Z,510.73
2022-08-03T16:28:07.618Z,492.27
2022-08-03T16:30:39.384Z,507.00
2022-08-03T16:33:05.822Z,499.50
2022-08-03T16:35:32.263Z,542.90
2022-08-03T16:37:58.720Z,550.53
2022-08-03T16:40:25.177Z,520.63
2022-08-03T16:42:51.656Z,519.20
2022-08-03T16:45:18.094Z,545.33
2022-08-03T16:47:44.568Z,532.23
2022-08-03T16:50:17.165Z,541.67
2022-08-03T16:52:47.229Z,541.90
2022-08-03T16:55:15.366Z,528.77
2022-08-03T16:57:58.586Z,550.80
2022-08-03T17:00:33.815Z,531.67
2022-08-03T17:03:01.210Z,543.13
2022-08-03T17:05:43.539Z,526.07
2022-08-03T17:08:13.982Z,541.03
2022-08-03T17:10:40.436Z,536.43
2022-08-03T17:13:07.381Z,535.60
2022-08-03T17:15:38.357Z,553.00
2022-08-03T17:18:21.958Z,526.07
2022-08-03T17:20:48.480Z,538.27
2022-08-03T17:23:34.074Z,547.93
2022-08-03T17:26:04.822Z,543.60
2022-08-03T17:28:48.253Z,541.83
2022-08-03T17:31:23.274Z,532.50
2022-08-03T17:33:58.411Z,537.30
2022-08-03T17:37:02.159Z,544.00
2022-08-03T17:39:31.172Z,539.00
2022-08-03T17:42:02.696Z,540.50
2022-08-03T17:47:19.234Z,533.10
2022-08-03T17:49:47.903Z,543.60
2022-08-03T17:52:17.373Z,545.27
2022-08-03T17:55:50.679Z,547.93
2022-08-03T17:57:30.688Z,530.70
2022-08-03T18:00:17.115Z,540.33
2022-08-03T18:02:49.420Z,535.37
2022-08-03T18:05:18.058Z,546.10
2022-08-03T18:07:48.501Z,540.97
2022-08-03T18:10:15.402Z,524.43
2022-08-03T18:12:42.421Z,543.27
2022-08-03T18:15:21.020Z,532.93
2022-08-03T18:17:58.131Z,547.00
2022-08-03T18:20:31.251Z,548.90
2022-08-03T18:23:01.400Z,551.50
2022-08-03T18:25:45.645Z,528.03
2022-08-03T18:28:18.885Z,540.70
2022-08-03T18:30:53.985Z,553.23
2022-08-03T18:34:16.563Z,528.50
2022-08-03T18:36:07.952Z,541.10
2022-08-03T18:38:35.717Z,525.70
2022-08-03T18:41:02.219Z,546.30
2022-08-03T18:43:47.249Z,530.83
2022-08-03T18:46:14.200Z,542.37
2022-08-03T18:48:40.726Z,541.87
2022-08-03T18:51:12.559Z,554.07
2022-08-03T18:54:03.843Z,526.53
2022-08-03T18:56:32.858Z,531.13
2022-08-03T18:59:02.404Z,533.93
2022-08-03T19:01:58.217Z,549.70
2022-08-03T19:04:15.733Z,543.27
2022-08-03T19:06:43.464Z,549.83
2022-08-03T19:09:10.637Z,563.10
2022-08-03T19:12:14.333Z,563.63
2022-08-03T19:14:28.761Z,560.10
2022-08-03T19:16:55.860Z,549.90
2022-08-03T19:19:22.677Z,558.60
2022-08-03T19:21:49.262Z,516.97
2022-08-03T19:24:15.769Z,537.63
2022-08-03T19:26:42.197Z,533.10
2022-08-03T19:29:14.847Z,524.73
2022-08-03T19:31:41.864Z,523.97
2022-08-03T19:34:25.764Z,533.10
2022-08-03T19:36:52.219Z,547.80
2022-08-03T19:39:18.802Z,556.63
2022-08-03T19:41:51.412Z,532.90
2022-08-03T19:44:20.049Z,546.87
2022-08-03T19:46:46.844Z,546.53
2022-08-03T19:49:15.212Z,554.00
2022-08-03T19:51:58.412Z,527.40
2022-08-03T19:54:29.500Z,542.50
2022-08-03T19:56:56.482Z,516.30
2022-08-03T19:59:22.941Z,515.40
2022-08-03T20:01:52.850Z,542.07
2022-08-03T20:04:20.509Z,511.43
2022-08-03T20:06:47.058Z,543.10
2022-08-03T20:09:16.127Z,528.27
2022-08-03T20:11:43.786Z,543.20
2022-08-03T20:14:11.711Z,540.20
2022-08-03T20:16:39.784Z,546.00
2022-08-03T20:19:14.178Z,554.33
2022-08-03T20:21:40.853Z,542.97
2022-08-03T20:24:24.461Z,546.00
2022-08-03T20:26:51.735Z,547.90
2022-08-03T20:29:19.779Z,549.17
2022-08-03T20:32:06.201Z,518.33
2022-08-03T20:34:32.919Z,553.40
2022-08-03T20:36:59.380Z,542.30
2022-08-03T20:39:26.529Z,554.50
2022-08-03T20:41:53.905Z,548.87
2022-08-03T20:44:25.930Z,552.53
2022-08-03T20:47:00.148Z,529.93
2022-08-03T20:49:27.327Z,551.93
2022-08-03T20:51:53.869Z,533.13
2022-08-03T20:54:23.089Z,548.70
2022-08-03T20:56:57.232Z,540.40
2022-08-03T20:59:24.455Z,551.90
2022-08-03T21:01:50.919Z,549.80
2022-08-03T21:04:21.063Z,551.67
2022-08-03T21:06:53.202Z,549.60
2022-08-03T21:09:20.037Z,546.30
2022-08-03T21:11:46.552Z,524.10
2022-08-03T21:13:04.190Z,522.60
2022-08-03T21:14:13.060Z,546.43
2022-08-03T21:16:39.591Z,522.10
2022-08-03T21:19:06.082Z,544.17
2022-08-03T21:21:32.560Z,544.93
2022-08-03T21:23:59.049Z,552.00
2022-08-03T21:26:25.552Z,549.23
2022-08-03T21:28:52.053Z,562.43
2022-08-03T21:31:25.593Z,562.20
2022-08-03T21:33:52.873Z,558.47
2022-08-03T21:36:19.347Z,549.77
2022-08-03T21:38:47.578Z,554.23
2022-08-03T21:41:23.255Z,551.50
2022-08-03T21:43:49.768Z,561.53
2022-08-03T21:46:16.252Z,551.20
2022-08-03T21:48:42.772Z,546.93
2022-08-03T21:51:09.270Z,526.03
2022-08-03T21:54:03.491Z,547.77
2022-08-03T21:56:22.215Z,537.40
2022-08-03T21:58:51.062Z,521.70
2022-08-03T22:01:18.384Z,539.53
2022-08-03T22:03:53.064Z,549.23
2022-08-03T22:06:20.697Z,541.30
2022-08-03T22:08:48.971Z,544.87
2022-08-03T22:11:15.463Z,534.33
2022-08-03T22:13:43.659Z,551.93
2022-08-03T22:16:10.874Z,543.57
2022-08-03T22:18:37.313Z,549.77
2022-08-03T22:21:03.759Z,558.70
2022-08-03T22:23:30.188Z,556.00
2022-08-03T22:25:56.625Z,543.40
2022-08-03T22:28:23.075Z,534.23
2022-08-03T22:30:49.544Z,548.20
2022-08-03T22:33:15.988Z,547.13
2022-08-03T22:35:47.217Z,549.67
2022-08-03T22:38:14.572Z,548.60
2022-08-03T22:40:41.019Z,556.27
2022-08-03T22:43:07.471Z,543.60
2022-08-03T22:46:06.424Z,547.07
2022-08-03T22:48:20.348Z,542.33
2022-08-03T22:50:46.833Z,551.67
2022-08-03T22:53:13.269Z,535.43
2022-08-03T22:55:39.724Z,558.03
2022-08-03T22:58:06.146Z,551.93
2022-08-03T23:00:32.586Z,550.30
2022-08-03T23:02:59.047Z,533.57
2022-08-03T23:06:02.103Z,565.13
2022-08-03T23:08:11.975Z,555.93
2022-08-03T23:10:41.515Z,564.10
2022-08-03T23:13:10.165Z,551.43
2022-08-03T23:15:36.592Z,566.10
2022-08-03T23:18:03.136Z,565.43
2022-08-03T23:20:29.571Z,570.73
2022-08-03T23:22:57.244Z,543.73
2022-08-03T23:25:23.703Z,559.80
2022-08-03T23:28:05.067Z,550.17
2022-08-03T23:30:32.196Z,561.83
2022-08-03T23:32:58.654Z,531.27
2022-08-03T23:36:20.177Z,556.53
2022-08-03T23:38:21.923Z,553.83
2022-08-03T23:40:51.216Z,546.13
2022-08-03T23:43:36.726Z,561.90
2022-08-03T23:46:04.415Z,558.70
2022-08-03T23:48:30.900Z,559.53
2022-08-03T23:50:57.368Z,544.23
2022-08-03T23:53:23.799Z,554.00
2022-08-03T23:55:50.243Z,540.17
2022-08-03T23:58:16.699Z,553.93
